sensor_id;sensor_type;location;lat;lon;timestamp;P1;durP1;ratioP1;P2;durP2;ratioP2
75400;SDS011;63974;47.538;18.972;2024-03-02T00:01:44;29.97;;;11.90;;
75400;SDS011;63974;47.538;18.972;2024-03-02T00:04:47;26.40;;;11.20;;
75400;SDS011;63974;47.538;18.972;2024-03-02T00:10:57;26.17;;;10.45;;
75400;SDS011;63974;47.538;18.972;2024-03-02T00:14:01;23.17;;;10.30;;
75400;SDS011;63974;47.538;18.972;2024-03-02T00:17:04;27.20;;;11.87;;
75400;SDS011;63974;47.538;18.972;2024-03-02T00:20:08;28.70;;;11.98;;
75400;SDS011;63974;47.538;18.972;2024-03-02T00:23:16;25.73;;;11.25;;
75400;SDS011;63974;47.538;18.972;2024-03-02T00:26:21;25.98;;;10.60;;
75400;SDS011;63974;47.538;18.972;2024-03-02T00:29:23;24.90;;;11.03;;
75400;SDS011;63974;47.538;18.972;2024-03-02T00:32:27;25.80;;;10.13;;
75400;SDS011;63974;47.538;18.972;2024-03-02T00:35:30;26.98;;;10.85;;
75400;SDS011;63974;47.538;18.972;2024-03-02T00:38:34;25.38;;;11.68;;
75400;SDS011;63974;47.538;18.972;2024-03-02T00:41:43;25.77;;;10.00;;
75400;SDS011;63974;47.538;18.972;2024-03-02T00:44:46;24.50;;;10.53;;
75400;SDS011;63974;47.538;18.972;2024-03-02T00:47:50;24.87;;;10.47;;
75400;SDS011;63974;47.538;18.972;2024-03-02T00:50:53;24.75;;;11.93;;
75400;SDS011;63974;47.538;18.972;2024-03-02T00:53:58;26.88;;;12.07;;
75400;SDS011;63974;47.538;18.972;2024-03-02T00:57:02;19.05;;;10.30;;
75400;SDS011;63974;47.538;18.972;2024-03-02T01:00:06;25.53;;;11.17;;
75400;SDS011;63974;47.538;18.972;2024-03-02T01:03:14;24.83;;;11.37;;
75400;SDS011;63974;47.538;18.972;2024-03-02T01:06:17;27.85;;;12.15;;
75400;SDS011;63974;47.538;18.972;2024-03-02T01:09:20;31.35;;;13.20;;
75400;SDS011;63974;47.538;18.972;2024-03-02T01:12:23;26.33;;;11.63;;
75400;SDS011;63974;47.538;18.972;2024-03-02T01:15:26;26.60;;;11.30;;
75400;SDS011;63974;47.538;18.972;2024-03-02T01:18:29;26.77;;;11.63;;
75400;SDS011;63974;47.538;18.972;2024-03-02T01:21:31;27.27;;;11.13;;
75400;SDS011;63974;47.538;18.972;2024-03-02T01:24:34;29.08;;;11.88;;
75400;SDS011;63974;47.538;18.972;2024-03-02T01:27:37;24.50;;;10.30;;
75400;SDS011;63974;47.538;18.972;2024-03-02T01:30:40;27.17;;;11.63;;
75400;SDS011;63974;47.538;18.972;2024-03-02T01:33:42;27.40;;;11.07;;
75400;SDS011;63974;47.538;18.972;2024-03-02T01:36:45;29.70;;;10.82;;
75400;SDS011;63974;47.538;18.972;2024-03-02T01:39:48;28.55;;;11.75;;
75400;SDS011;63974;47.538;18.972;2024-03-02T01:42:51;27.42;;;11.35;;
75400;SDS011;63974;47.538;18.972;2024-03-02T01:45:54;24.80;;;11.07;;
75400;SDS011;63974;47.538;18.972;2024-03-02T01:48:57;29.83;;;13.30;;
75400;SDS011;63974;47.538;18.972;2024-03-02T01:51:59;29.63;;;13.13;;
75400;SDS011;63974;47.538;18.972;2024-03-02T01:55:02;27.95;;;11.88;;
75400;SDS011;63974;47.538;18.972;2024-03-02T01:58:06;33.13;;;12.27;;
75400;SDS011;63974;47.538;18.972;2024-03-02T02:01:09;29.33;;;12.33;;
75400;SDS011;63974;47.538;18.972;2024-03-02T02:04:12;30.33;;;12.50;;
75400;SDS011;63974;47.538;18.972;2024-03-02T02:07:15;29.48;;;11.35;;
75400;SDS011;63974;47.538;18.972;2024-03-02T02:10:18;26.27;;;12.48;;
75400;SDS011;63974;47.538;18.972;2024-03-02T02:13:21;25.77;;;11.27;;
75400;SDS011;63974;47.538;18.972;2024-03-02T02:16:24;23.50;;;10.83;;
75400;SDS011;63974;47.538;18.972;2024-03-02T02:19:26;29.07;;;12.30;;
75400;SDS011;63974;47.538;18.972;2024-03-02T02:22:29;31.63;;;12.60;;
75400;SDS011;63974;47.538;18.972;2024-03-02T02:25:32;32.50;;;12.20;;
75400;SDS011;63974;47.538;18.972;2024-03-02T02:28:34;29.40;;;12.75;;
75400;SDS011;63974;47.538;18.972;2024-03-02T02:31:40;34.37;;;13.33;;
75400;SDS011;63974;47.538;18.972;2024-03-02T02:34:44;29.90;;;12.53;;
75400;SDS011;63974;47.538;18.972;2024-03-02T02:37:47;33.22;;;13.45;;
75400;SDS011;63974;47.538;18.972;2024-03-02T02:40:51;31.45;;;13.35;;
75400;SDS011;63974;47.538;18.972;2024-03-02T02:43:53;33.63;;;13.35;;
75400;SDS011;63974;47.538;18.972;2024-03-02T02:46:56;30.47;;;12.63;;
75400;SDS011;63974;47.538;18.972;2024-03-02T02:49:59;26.17;;;11.27;;
75400;SDS011;63974;47.538;18.972;2024-03-02T02:53:01;28.33;;;13.20;;
75400;SDS011;63974;47.538;18.972;2024-03-02T02:56:04;28.38;;;11.82;;
75400;SDS011;63974;47.538;18.972;2024-03-02T02:59:07;28.77;;;12.60;;
75400;SDS011;63974;47.538;18.972;2024-03-02T03:02:09;29.93;;;12.37;;
75400;SDS011;63974;47.538;18.972;2024-03-02T03:05:12;27.03;;;11.93;;
75400;SDS011;63974;47.538;18.972;2024-03-02T03:08:17;30.52;;;13.10;;
75400;SDS011;63974;47.538;18.972;2024-03-02T03:11:19;31.52;;;12.10;;
75400;SDS011;63974;47.538;18.972;2024-03-02T03:14:22;32.00;;;12.32;;
75400;SDS011;63974;47.538;18.972;2024-03-02T03:17:24;29.40;;;12.17;;
75400;SDS011;63974;47.538;18.972;2024-03-02T03:20:27;33.50;;;13.43;;
75400;SDS011;63974;47.538;18.972;2024-03-02T03:23:30;29.17;;;12.00;;
75400;SDS011;63974;47.538;18.972;2024-03-02T03:26:35;30.02;;;12.90;;
75400;SDS011;63974;47.538;18.972;2024-03-02T03:29:38;35.75;;;14.45;;
75400;SDS011;63974;47.538;18.972;2024-03-02T03:32:41;30.97;;;13.70;;
75400;SDS011;63974;47.538;18.972;2024-03-02T03:35:44;26.37;;;11.87;;
75400;SDS011;63974;47.538;18.972;2024-03-02T03:38:46;32.20;;;12.10;;
75400;SDS011;63974;47.538;18.972;2024-03-02T03:41:50;33.17;;;12.85;;
75400;SDS011;63974;47.538;18.972;2024-03-02T03:44:53;30.25;;;11.90;;
75400;SDS011;63974;47.538;18.972;2024-03-02T03:47:56;32.33;;;11.57;;
75400;SDS011;63974;47.538;18.972;2024-03-02T03:50:59;29.67;;;11.47;;
75400;SDS011;63974;47.538;18.972;2024-03-02T03:54:01;31.58;;;12.77;;
75400;SDS011;63974;47.538;18.972;2024-03-02T03:57:04;30.63;;;11.55;;
75400;SDS011;63974;47.538;18.972;2024-03-02T04:00:07;34.72;;;12.63;;
75400;SDS011;63974;47.538;18.972;2024-03-02T04:03:15;32.40;;;12.83;;
75400;SDS011;63974;47.538;18.972;2024-03-02T04:06:18;29.83;;;12.77;;
75400;SDS011;63974;47.538;18.972;2024-03-02T04:09:21;34.70;;;13.18;;
75400;SDS011;63974;47.538;18.972;2024-03-02T04:12:23;34.85;;;13.27;;
75400;SDS011;63974;47.538;18.972;2024-03-02T04:15:26;35.10;;;15.05;;
75400;SDS011;63974;47.538;18.972;2024-03-02T04:18:29;33.67;;;13.00;;
75400;SDS011;63974;47.538;18.972;2024-03-02T04:21:32;32.20;;;13.37;;
75400;SDS011;63974;47.538;18.972;2024-03-02T04:24:34;34.92;;;13.95;;
75400;SDS011;63974;47.538;18.972;2024-03-02T04:27:37;34.83;;;13.95;;
75400;SDS011;63974;47.538;18.972;2024-03-02T04:30:40;32.30;;;15.15;;
75400;SDS011;63974;47.538;18.972;2024-03-02T04:33:43;37.80;;;15.97;;
75400;SDS011;63974;47.538;18.972;2024-03-02T04:36:45;34.77;;;14.17;;
75400;SDS011;63974;47.538;18.972;2024-03-02T04:39:48;35.22;;;14.38;;
75400;SDS011;63974;47.538;18.972;2024-03-02T04:42:51;32.10;;;13.75;;
75400;SDS011;63974;47.538;18.972;2024-03-02T04:45:54;33.22;;;13.80;;
75400;SDS011;63974;47.538;18.972;2024-03-02T04:48:56;29.87;;;12.97;;
75400;SDS011;63974;47.538;18.972;2024-03-02T04:51:59;37.07;;;14.17;;
75400;SDS011;63974;47.538;18.972;2024-03-02T04:55:04;33.85;;;13.30;;
75400;SDS011;63974;47.538;18.972;2024-03-02T04:58:27;36.08;;;13.77;;
75400;SDS011;63974;47.538;18.972;2024-03-02T05:01:29;35.67;;;14.70;;
75400;SDS011;63974;47.538;18.972;2024-03-02T05:04:32;34.33;;;13.77;;
75400;SDS011;63974;47.538;18.972;2024-03-02T05:07:35;31.77;;;14.63;;
75400;SDS011;63974;47.538;18.972;2024-03-02T05:10:37;33.53;;;14.35;;
75400;SDS011;63974;47.538;18.972;2024-03-02T05:13:40;33.13;;;14.85;;
75400;SDS011;63974;47.538;18.972;2024-03-02T05:16:43;35.03;;;15.43;;
75400;SDS011;63974;47.538;18.972;2024-03-02T05:19:45;33.30;;;13.63;;
75400;SDS011;63974;47.538;18.972;2024-03-02T05:22:48;33.17;;;14.13;;
75400;SDS011;63974;47.538;18.972;2024-03-02T05:25:52;32.47;;;13.10;;
75400;SDS011;63974;47.538;18.972;2024-03-02T05:28:58;35.42;;;13.60;;
75400;SDS011;63974;47.538;18.972;2024-03-02T05:32:01;33.10;;;13.70;;
75400;SDS011;63974;47.538;18.972;2024-03-02T05:35:04;47.10;;;20.53;;
75400;SDS011;63974;47.538;18.972;2024-03-02T05:38:08;50.90;;;20.90;;
75400;SDS011;63974;47.538;18.972;2024-03-02T05:41:11;43.97;;;18.55;;
75400;SDS011;63974;47.538;18.972;2024-03-02T05:44:14;38.47;;;17.92;;
75400;SDS011;63974;47.538;18.972;2024-03-02T05:47:17;38.47;;;15.70;;
75400;SDS011;63974;47.538;18.972;2024-03-02T05:50:20;35.67;;;17.50;;
75400;SDS011;63974;47.538;18.972;2024-03-02T05:53:23;35.30;;;14.97;;
75400;SDS011;63974;47.538;18.972;2024-03-02T05:56:25;37.40;;;16.40;;
75400;SDS011;63974;47.538;18.972;2024-03-02T05:59:28;35.72;;;14.85;;
75400;SDS011;63974;47.538;18.972;2024-03-02T06:02:31;37.60;;;14.57;;
75400;SDS011;63974;47.538;18.972;2024-03-02T06:05:33;35.00;;;14.23;;
75400;SDS011;63974;47.538;18.972;2024-03-02T06:08:36;36.03;;;13.80;;
75400;SDS011;63974;47.538;18.972;2024-03-02T06:11:39;32.30;;;13.60;;
75400;SDS011;63974;47.538;18.972;2024-03-02T06:14:43;35.80;;;16.52;;
75400;SDS011;63974;47.538;18.972;2024-03-02T06:17:45;32.35;;;13.55;;
75400;SDS011;63974;47.538;18.972;2024-03-02T06:20:48;34.37;;;13.43;;
75400;SDS011;63974;47.538;18.972;2024-03-02T06:23:51;36.90;;;14.60;;
75400;SDS011;63974;47.538;18.972;2024-03-02T06:26:54;36.80;;;16.13;;
75400;SDS011;63974;47.538;18.972;2024-03-02T06:29:59;34.33;;;15.50;;
75400;SDS011;63974;47.538;18.972;2024-03-02T06:33:02;34.70;;;14.15;;
75400;SDS011;63974;47.538;18.972;2024-03-02T06:36:06;35.77;;;15.03;;
75400;SDS011;63974;47.538;18.972;2024-03-02T06:39:14;37.67;;;17.93;;
75400;SDS011;63974;47.538;18.972;2024-03-02T06:42:16;42.40;;;14.75;;
75400;SDS011;63974;47.538;18.972;2024-03-02T06:45:19;31.83;;;14.25;;
75400;SDS011;63974;47.538;18.972;2024-03-02T06:48:22;39.47;;;16.10;;
75400;SDS011;63974;47.538;18.972;2024-03-02T06:51:25;41.27;;;17.53;;
75400;SDS011;63974;47.538;18.972;2024-03-02T06:54:28;41.03;;;15.20;;
75400;SDS011;63974;47.538;18.972;2024-03-02T06:57:30;45.92;;;18.95;;
75400;SDS011;63974;47.538;18.972;2024-03-02T07:00:33;70.88;;;33.55;;
75400;SDS011;63974;47.538;18.972;2024-03-02T07:03:36;46.70;;;20.65;;
75400;SDS011;63974;47.538;18.972;2024-03-02T07:06:39;45.53;;;17.93;;
75400;SDS011;63974;47.538;18.972;2024-03-02T07:09:42;40.67;;;17.77;;
75400;SDS011;63974;47.538;18.972;2024-03-02T07:12:44;35.65;;;14.82;;
75400;SDS011;63974;47.538;18.972;2024-03-02T07:15:47;37.25;;;16.45;;
75400;SDS011;63974;47.538;18.972;2024-03-02T07:19:08;40.75;;;17.88;;
75400;SDS011;63974;47.538;18.972;2024-03-02T07:22:11;36.87;;;16.67;;
75400;SDS011;63974;47.538;18.972;2024-03-02T07:25:14;33.37;;;14.77;;
75400;SDS011;63974;47.538;18.972;2024-03-02T07:28:20;34.50;;;14.65;;
75400;SDS011;63974;47.538;18.972;2024-03-02T07:31:22;31.45;;;13.48;;
75400;SDS011;63974;47.538;18.972;2024-03-02T07:34:25;32.13;;;14.50;;
75400;SDS011;63974;47.538;18.972;2024-03-02T07:37:28;38.13;;;16.17;;
75400;SDS011;63974;47.538;18.972;2024-03-02T07:40:30;36.37;;;15.33;;
75400;SDS011;63974;47.538;18.972;2024-03-02T07:43:33;36.58;;;14.10;;
75400;SDS011;63974;47.538;18.972;2024-03-02T07:46:36;36.30;;;14.15;;
75400;SDS011;63974;47.538;18.972;2024-03-02T07:49:39;36.15;;;14.90;;
75400;SDS011;63974;47.538;18.972;2024-03-02T07:52:42;30.93;;;13.57;;
75400;SDS011;63974;47.538;18.972;2024-03-02T07:55:44;31.30;;;14.20;;
75400;SDS011;63974;47.538;18.972;2024-03-02T07:58:47;36.05;;;14.38;;
75400;SDS011;63974;47.538;18.972;2024-03-02T08:01:51;38.00;;;14.48;;
75400;SDS011;63974;47.538;18.972;2024-03-02T08:04:54;32.35;;;14.95;;
75400;SDS011;63974;47.538;18.972;2024-03-02T08:07:56;34.47;;;14.23;;
75400;SDS011;63974;47.538;18.972;2024-03-02T08:10:59;39.73;;;15.20;;
75400;SDS011;63974;47.538;18.972;2024-03-02T08:14:03;36.05;;;15.18;;
75400;SDS011;63974;47.538;18.972;2024-03-02T08:17:05;34.58;;;14.82;;
75400;SDS011;63974;47.538;18.972;2024-03-02T08:20:12;30.85;;;14.57;;
75400;SDS011;63974;47.538;18.972;2024-03-02T08:23:14;36.63;;;13.87;;
75400;SDS011;63974;47.538;18.972;2024-03-02T08:26:17;41.40;;;15.50;;
75400;SDS011;63974;47.538;18.972;2024-03-02T08:29:20;35.13;;;14.55;;
75400;SDS011;63974;47.538;18.972;2024-03-02T08:32:22;34.70;;;14.75;;
75400;SDS011;63974;47.538;18.972;2024-03-02T08:35:25;33.33;;;15.05;;
75400;SDS011;63974;47.538;18.972;2024-03-02T08:38:28;37.53;;;15.13;;
75400;SDS011;63974;47.538;18.972;2024-03-02T08:41:31;42.57;;;16.33;;
75400;SDS011;63974;47.538;18.972;2024-03-02T08:44:34;38.38;;;15.75;;
75400;SDS011;63974;47.538;18.972;2024-03-02T08:47:36;39.03;;;16.67;;
75400;SDS011;63974;47.538;18.972;2024-03-02T08:50:39;34.85;;;13.70;;
75400;SDS011;63974;47.538;18.972;2024-03-02T08:53:42;39.73;;;16.13;;
75400;SDS011;63974;47.538;18.972;2024-03-02T08:56:46;39.63;;;16.87;;
75400;SDS011;63974;47.538;18.972;2024-03-02T08:59:48;35.92;;;16.48;;
75400;SDS011;63974;47.538;18.972;2024-03-02T09:02:51;35.70;;;15.70;;
75400;SDS011;63974;47.538;18.972;2024-03-02T09:05:54;37.58;;;16.50;;
75400;SDS011;63974;47.538;18.972;2024-03-02T09:08:57;37.27;;;15.13;;
75400;SDS011;63974;47.538;18.972;2024-03-02T09:11:59;36.70;;;15.90;;
75400;SDS011;63974;47.538;18.972;2024-03-02T09:15:02;38.72;;;16.00;;
75400;SDS011;63974;47.538;18.972;2024-03-02T09:18:05;40.47;;;16.08;;
75400;SDS011;63974;47.538;18.972;2024-03-02T09:21:09;36.67;;;15.70;;
75400;SDS011;63974;47.538;18.972;2024-03-02T09:24:12;34.17;;;16.07;;
75400;SDS011;63974;47.538;18.972;2024-03-02T09:27:19;37.07;;;15.30;;
75400;SDS011;63974;47.538;18.972;2024-03-02T09:30:22;30.90;;;14.25;;
75400;SDS011;63974;47.538;18.972;2024-03-02T09:33:25;36.50;;;14.95;;
75400;SDS011;63974;47.538;18.972;2024-03-02T09:36:28;34.20;;;14.98;;
75400;SDS011;63974;47.538;18.972;2024-03-02T09:39:31;38.73;;;15.53;;
75400;SDS011;63974;47.538;18.972;2024-03-02T09:42:34;33.23;;;16.07;;
75400;SDS011;63974;47.538;18.972;2024-03-02T09:45:37;33.38;;;16.17;;
75400;SDS011;63974;47.538;18.972;2024-03-02T09:48:40;33.25;;;15.45;;
75400;SDS011;63974;47.538;18.972;2024-03-02T09:51:49;32.83;;;14.77;;
75400;SDS011;63974;47.538;18.972;2024-03-02T09:54:52;34.10;;;15.00;;
75400;SDS011;63974;47.538;18.972;2024-03-02T09:57:55;30.10;;;14.93;;
75400;SDS011;63974;47.538;18.972;2024-03-02T10:00:58;34.65;;;15.65;;
75400;SDS011;63974;47.538;18.972;2024-03-02T10:04:01;39.97;;;15.82;;
75400;SDS011;63974;47.538;18.972;2024-03-02T10:07:13;36.13;;;15.43;;
75400;SDS011;63974;47.538;18.972;2024-03-02T10:10:17;28.63;;;14.10;;
75400;SDS011;63974;47.538;18.972;2024-03-02T10:13:21;31.67;;;15.70;;
75400;SDS011;63974;47.538;18.972;2024-03-02T10:16:27;35.88;;;15.43;;
75400;SDS011;63974;47.538;18.972;2024-03-02T10:19:30;35.10;;;15.88;;
75400;SDS011;63974;47.538;18.972;2024-03-02T10:22:35;31.17;;;15.15;;
75400;SDS011;63974;47.538;18.972;2024-03-02T10:25:38;35.13;;;15.67;;
75400;SDS011;63974;47.538;18.972;2024-03-02T10:28:55;37.37;;;16.10;;
75400;SDS011;63974;47.538;18.972;2024-03-02T10:32:02;34.92;;;15.95;;
75400;SDS011;63974;47.538;18.972;2024-03-02T10:35:05;32.10;;;15.55;;
75400;SDS011;63974;47.538;18.972;2024-03-02T10:38:08;30.58;;;15.18;;
75400;SDS011;63974;47.538;18.972;2024-03-02T10:41:17;30.33;;;15.63;;
75400;SDS011;63974;47.538;18.972;2024-03-02T10:44:21;35.90;;;16.03;;
75400;SDS011;63974;47.538;18.972;2024-03-02T10:47:25;30.10;;;15.40;;
75400;SDS011;63974;47.538;18.972;2024-03-02T10:50:29;30.08;;;15.57;;
75400;SDS011;63974;47.538;18.972;2024-03-02T10:53:34;32.22;;;15.73;;
75400;SDS011;63974;47.538;18.972;2024-03-02T10:56:40;32.77;;;15.87;;
75400;SDS011;63974;47.538;18.972;2024-03-02T10:59:49;34.63;;;17.03;;
75400;SDS011;63974;47.538;18.972;2024-03-02T11:03:04;32.55;;;17.13;;
75400;SDS011;63974;47.538;18.972;2024-03-02T11:06:08;45.03;;;21.33;;
75400;SDS011;63974;47.538;18.972;2024-03-02T11:09:13;35.55;;;16.45;;
75400;SDS011;63974;47.538;18.972;2024-03-02T11:12:19;36.87;;;18.07;;
75400;SDS011;63974;47.538;18.972;2024-03-02T11:15:26;77.37;;;37.77;;
75400;SDS011;63974;47.538;18.972;2024-03-02T11:18:30;44.45;;;21.75;;
75400;SDS011;63974;47.538;18.972;2024-03-02T11:21:34;42.20;;;18.95;;
75400;SDS011;63974;47.538;18.972;2024-03-02T11:24:38;50.15;;;23.45;;
75400;SDS011;63974;47.538;18.972;2024-03-02T11:30:50;35.77;;;18.13;;
75400;SDS011;63974;47.538;18.972;2024-03-02T11:33:54;36.05;;;17.73;;
75400;SDS011;63974;47.538;18.972;2024-03-02T11:37:03;33.22;;;17.08;;
75400;SDS011;63974;47.538;18.972;2024-03-02T11:40:06;32.75;;;17.75;;
75400;SDS011;63974;47.538;18.972;2024-03-02T11:43:12;34.13;;;17.00;;
75400;SDS011;63974;47.538;18.972;2024-03-02T11:46:16;39.50;;;17.90;;
75400;SDS011;63974;47.538;18.972;2024-03-02T11:49:37;35.67;;;17.83;;
75400;SDS011;63974;47.538;18.972;2024-03-02T11:52:41;30.05;;;16.50;;
75400;SDS011;63974;47.538;18.972;2024-03-02T11:55:47;36.60;;;17.05;;
75400;SDS011;63974;47.538;18.972;2024-03-02T11:58:53;35.90;;;18.47;;
75400;SDS011;63974;47.538;18.972;2024-03-02T12:01:56;34.63;;;17.53;;
75400;SDS011;63974;47.538;18.972;2024-03-02T12:05:02;36.10;;;18.40;;
75400;SDS011;63974;47.538;18.972;2024-03-02T12:08:06;39.80;;;18.02;;
75400;SDS011;63974;47.538;18.972;2024-03-02T12:11:12;35.47;;;17.80;;
75400;SDS011;63974;47.538;18.972;2024-03-02T12:14:18;35.53;;;17.60;;
75400;SDS011;63974;47.538;18.972;2024-03-02T12:17:21;32.07;;;15.97;;
75400;SDS011;63974;47.538;18.972;2024-03-02T12:20:25;37.00;;;18.35;;
75400;SDS011;63974;47.538;18.972;2024-03-02T12:23:31;35.33;;;16.90;;
75400;SDS011;63974;47.538;18.972;2024-03-02T12:26:34;32.88;;;18.15;;
75400;SDS011;63974;47.538;18.972;2024-03-02T12:29:36;35.20;;;18.20;;
75400;SDS011;63974;47.538;18.972;2024-03-02T12:32:40;35.43;;;17.70;;
75400;SDS011;63974;47.538;18.972;2024-03-02T12:35:43;33.67;;;18.13;;
75400;SDS011;63974;47.538;18.972;2024-03-02T12:38:46;34.55;;;17.48;;
75400;SDS011;63974;47.538;18.972;2024-03-02T12:41:49;34.22;;;17.90;;
75400;SDS011;63974;47.538;18.972;2024-03-02T12:44:53;34.93;;;19.20;;
75400;SDS011;63974;47.538;18.972;2024-03-02T12:47:59;40.23;;;19.23;;
75400;SDS011;63974;47.538;18.972;2024-03-02T12:51:02;35.92;;;18.92;;
75400;SDS011;63974;47.538;18.972;2024-03-02T12:54:09;33.00;;;16.88;;
75400;SDS011;63974;47.538;18.972;2024-03-02T12:57:19;36.72;;;18.27;;
75400;SDS011;63974;47.538;18.972;2024-03-02T13:00:21;31.33;;;16.53;;
75400;SDS011;63974;47.538;18.972;2024-03-02T13:03:25;31.53;;;16.87;;
75400;SDS011;63974;47.538;18.972;2024-03-02T13:06:28;37.10;;;18.20;;
75400;SDS011;63974;47.538;18.972;2024-03-02T13:09:31;38.00;;;17.10;;
75400;SDS011;63974;47.538;18.972;2024-03-02T13:12:36;34.25;;;17.65;;
75400;SDS011;63974;47.538;18.972;2024-03-02T13:15:39;32.90;;;16.97;;
75400;SDS011;63974;47.538;18.972;2024-03-02T13:18:44;34.27;;;17.13;;
75400;SDS011;63974;47.538;18.972;2024-03-02T13:21:47;36.30;;;19.10;;
75400;SDS011;63974;47.538;18.972;2024-03-02T13:24:50;39.80;;;19.80;;
75400;SDS011;63974;47.538;18.972;2024-03-02T13:27:54;40.28;;;20.15;;
75400;SDS011;63974;47.538;18.972;2024-03-02T13:30:56;37.63;;;18.93;;
75400;SDS011;63974;47.538;18.972;2024-03-02T13:34:00;35.47;;;18.33;;
75400;SDS011;63974;47.538;18.972;2024-03-02T13:37:03;39.05;;;18.88;;
75400;SDS011;63974;47.538;18.972;2024-03-02T13:40:08;35.55;;;17.83;;
75400;SDS011;63974;47.538;18.972;2024-03-02T13:43:15;32.25;;;16.25;;
75400;SDS011;63974;47.538;18.972;2024-03-02T13:46:18;34.97;;;17.70;;
75400;SDS011;63974;47.538;18.972;2024-03-02T13:49:21;36.80;;;17.90;;
75400;SDS011;63974;47.538;18.972;2024-03-02T13:52:25;35.90;;;18.75;;
75400;SDS011;63974;47.538;18.972;2024-03-02T13:55:28;36.85;;;18.20;;
75400;SDS011;63974;47.538;18.972;2024-03-02T13:58:31;37.80;;;18.33;;
75400;SDS011;63974;47.538;18.972;2024-03-02T14:01:34;37.73;;;19.57;;
75400;SDS011;63974;47.538;18.972;2024-03-02T14:04:37;33.00;;;18.27;;
75400;SDS011;63974;47.538;18.972;2024-03-02T14:07:41;39.00;;;19.38;;
75400;SDS011;63974;47.538;18.972;2024-03-02T14:10:44;35.13;;;19.08;;
75400;SDS011;63974;47.538;18.972;2024-03-02T14:13:47;33.60;;;18.13;;
75400;SDS011;63974;47.538;18.972;2024-03-02T14:16:56;32.47;;;17.57;;
75400;SDS011;63974;47.538;18.972;2024-03-02T14:20:02;33.23;;;16.43;;
75400;SDS011;63974;47.538;18.972;2024-03-02T14:23:07;37.22;;;18.73;;
75400;SDS011;63974;47.538;18.972;2024-03-02T14:26:09;32.92;;;17.80;;
75400;SDS011;63974;47.538;18.972;2024-03-02T14:29:12;29.33;;;14.85;;
75400;SDS011;63974;47.538;18.972;2024-03-02T14:32:15;29.10;;;13.93;;
75400;SDS011;63974;47.538;18.972;2024-03-02T14:35:17;24.03;;;13.17;;
75400;SDS011;63974;47.538;18.972;2024-03-02T14:38:21;27.08;;;14.18;;
75400;SDS011;63974;47.538;18.972;2024-03-02T14:41:24;27.70;;;14.57;;
75400;SDS011;63974;47.538;18.972;2024-03-02T14:44:27;32.55;;;16.02;;
75400;SDS011;63974;47.538;18.972;2024-03-02T14:47:30;27.73;;;14.87;;
75400;SDS011;63974;47.538;18.972;2024-03-02T14:50:34;25.67;;;15.30;;
75400;SDS011;63974;47.538;18.972;2024-03-02T14:53:37;27.17;;;13.98;;
75400;SDS011;63974;47.538;18.972;2024-03-02T14:56:40;27.20;;;15.60;;
75400;SDS011;63974;47.538;18.972;2024-03-02T14:59:43;39.53;;;17.30;;
75400;SDS011;63974;47.538;18.972;2024-03-02T15:02:45;30.17;;;14.87;;
75400;SDS011;63974;47.538;18.972;2024-03-02T15:05:48;26.50;;;14.27;;
75400;SDS011;63974;47.538;18.972;2024-03-02T15:08:54;27.35;;;14.85;;
75400;SDS011;63974;47.538;18.972;2024-03-02T15:11:57;31.88;;;15.40;;
75400;SDS011;63974;47.538;18.972;2024-03-02T15:14:59;24.55;;;14.48;;
75400;SDS011;63974;47.538;18.972;2024-03-02T15:18:02;23.03;;;13.80;;
75400;SDS011;63974;47.538;18.972;2024-03-02T15:21:08;25.10;;;14.37;;
75400;SDS011;63974;47.538;18.972;2024-03-02T15:24:11;26.42;;;13.82;;
75400;SDS011;63974;47.538;18.972;2024-03-02T15:27:13;26.52;;;14.35;;
75400;SDS011;63974;47.538;18.972;2024-03-02T15:30:16;28.42;;;15.27;;
75400;SDS011;63974;47.538;18.972;2024-03-02T15:33:19;28.27;;;15.20;;
75400;SDS011;63974;47.538;18.972;2024-03-02T15:36:27;32.37;;;18.30;;
75400;SDS011;63974;47.538;18.972;2024-03-02T15:39:30;33.38;;;17.42;;
75400;SDS011;63974;47.538;18.972;2024-03-02T15:42:33;33.83;;;16.95;;
75400;SDS011;63974;47.538;18.972;2024-03-02T15:45:36;32.67;;;16.85;;
75400;SDS011;63974;47.538;18.972;2024-03-02T15:48:38;34.57;;;17.30;;
75400;SDS011;63974;47.538;18.972;2024-03-02T15:51:41;30.80;;;17.43;;
75400;SDS011;63974;47.538;18.972;2024-03-02T15:54:49;32.40;;;17.38;;
75400;SDS011;63974;47.538;18.972;2024-03-02T15:57:52;34.13;;;17.67;;
75400;SDS011;63974;47.538;18.972;2024-03-02T16:00:55;38.03;;;18.55;;
75400;SDS011;63974;47.538;18.972;2024-03-02T16:03:59;36.97;;;18.70;;
75400;SDS011;63974;47.538;18.972;2024-03-02T16:07:01;36.67;;;17.67;;
75400;SDS011;63974;47.538;18.972;2024-03-02T16:10:05;39.60;;;18.98;;
75400;SDS011;63974;47.538;18.972;2024-03-02T16:13:10;37.17;;;18.40;;
75400;SDS011;63974;47.538;18.972;2024-03-02T16:16:12;37.67;;;18.15;;
75400;SDS011;63974;47.538;18.972;2024-03-02T16:19:15;33.83;;;17.73;;
75400;SDS011;63974;47.538;18.972;2024-03-02T16:22:33;37.23;;;18.50;;
75400;SDS011;63974;47.538;18.972;2024-03-02T16:25:36;38.28;;;18.55;;
75400;SDS011;63974;47.538;18.972;2024-03-02T16:28:39;38.58;;;18.45;;
75400;SDS011;63974;47.538;18.972;2024-03-02T16:31:42;33.95;;;17.00;;
75400;SDS011;63974;47.538;18.972;2024-03-02T16:34:44;36.33;;;17.60;;
75400;SDS011;63974;47.538;18.972;2024-03-02T16:37:48;41.10;;;19.50;;
75400;SDS011;63974;47.538;18.972;2024-03-02T16:40:50;40.95;;;19.60;;
75400;SDS011;63974;47.538;18.972;2024-03-02T16:43:54;40.40;;;21.95;;
75400;SDS011;63974;47.538;18.972;2024-03-02T16:46:58;35.67;;;19.45;;
75400;SDS011;63974;47.538;18.972;2024-03-02T16:50:01;34.37;;;18.77;;
75400;SDS011;63974;47.538;18.972;2024-03-02T16:53:06;37.80;;;17.33;;
75400;SDS011;63974;47.538;18.972;2024-03-02T16:56:09;39.25;;;19.27;;
75400;SDS011;63974;47.538;18.972;2024-03-02T16:59:12;34.70;;;17.88;;
75400;SDS011;63974;47.538;18.972;2024-03-02T17:02:15;40.10;;;19.33;;
75400;SDS011;63974;47.538;18.972;2024-03-02T17:05:18;36.87;;;18.87;;
75400;SDS011;63974;47.538;18.972;2024-03-02T17:08:24;42.20;;;18.43;;
75400;SDS011;63974;47.538;18.972;2024-03-02T17:11:26;38.58;;;18.00;;
75400;SDS011;63974;47.538;18.972;2024-03-02T17:14:29;36.85;;;18.13;;
75400;SDS011;63974;47.538;18.972;2024-03-02T17:17:32;41.72;;;20.77;;
75400;SDS011;63974;47.538;18.972;2024-03-02T17:20:35;40.93;;;20.50;;
75400;SDS011;63974;47.538;18.972;2024-03-02T17:23:38;31.40;;;17.23;;
75400;SDS011;63974;47.538;18.972;2024-03-02T17:26:41;37.67;;;18.65;;
75400;SDS011;63974;47.538;18.972;2024-03-02T17:29:44;35.67;;;18.23;;
75400;SDS011;63974;47.538;18.972;2024-03-02T17:32:47;40.67;;;20.67;;
75400;SDS011;63974;47.538;18.972;2024-03-02T17:35:50;35.53;;;18.63;;
75400;SDS011;63974;47.538;18.972;2024-03-02T17:38:53;38.30;;;19.43;;
75400;SDS011;63974;47.538;18.972;2024-03-02T17:41:57;42.22;;;20.17;;
75400;SDS011;63974;47.538;18.972;2024-03-02T17:45:00;40.25;;;19.83;;